Time;durP1;ratioP1;P1;durP2;ratioP2;P2;SDS_P1;SDS_P2;PMS_P1;PMS_P2;Temp;Humidity;BMP_temperature;BMP_pressure;BME280_temperature;BME280_humidity;BME280_pressure;Samples;Min_cycle;Max_cycle;Signal;HPM_P1;HPM_P2
2023/07/29 00:00:51;;;;;;;5.55;2.38;;;18.90;99.90;;;;;;5087141;27;20047;-78
2023/07/29 00:03:17;;;;;;;5.90;2.45;;;18.90;99.90;;;;;;5088294;27;20105;-78
2023/07/29 00:05:43;;;;;;;7.60;2.83;;;18.80;99.90;;;;;;5105223;27;20043;-79
2023/07/29 00:08:09;;;;;;;4.50;2.90;;;18.80;99.90;;;;;;5095116;27;20504;-78
2023/07/29 00:10:38;;;;;;;5.25;3.42;;;18.80;99.90;;;;;;5090024;27;20905;-79
2023/07/29 00:13:05;;;;;;;7.45;2.75;;;18.80;99.90;;;;;;5111617;27;20061;-77
2023/07/29 00:15:31;;;;;;;4.60;2.80;;;18.80;99.90;;;;;;5096109;27;20095;-80
2023/07/29 00:17:57;;;;;;;4.68;3.10;;;18.80;99.90;;;;;;5111273;27;20065;-78
2023/07/29 00:20:23;;;;;;;7.10;2.80;;;18.80;99.90;;;;;;5092572;27;20038;-79
2023/07/29 00:22:53;;;;;;;5.30;3.00;;;19.70;99.90;;;;;;5066703;27;20031;-79
2023/07/29 00:25:19;;;;;;;5.85;3.17;;;18.80;99.90;;;;;;5097849;27;20047;-78
2023/07/29 00:27:45;;;;;;;7.47;3.17;;;18.80;99.90;;;;;;5107879;27;20043;-80
2023/07/29 00:30:11;;;;;;;7.63;2.95;;;18.80;99.90;;;;;;5094709;27;20034;-79
2023/07/29 00:32:37;;;;;;;5.10;2.65;;;18.80;99.90;;;;;;5090704;27;20047;-79
2023/07/29 00:35:03;;;;;;;4.88;2.50;;;18.80;99.90;;;;;;5097056;27;20046;-80
2023/07/29 00:37:30;;;;;;;5.35;2.58;;;18.80;99.90;;;;;;5111974;27;20054;-76
2023/07/29 00:39:57;;;;;;;6.22;2.63;;;18.80;99.90;;;;;;5110490;27;20043;-79
2023/07/29 00:42:24;;;;;;;6.45;2.92;;;19.30;99.90;;;;;;5094796;27;20088;-78
2023/07/29 00:44:49;;;;;;;6.97;3.10;;;18.80;99.90;;;;;;5091218;27;20054;-77
2023/07/29 00:47:16;;;;;;;8.85;4.00;;;18.70;99.90;;;;;;5094621;27;20047;-78
2023/07/29 00:49:45;;;;;;;7.93;3.55;;;18.70;99.90;;;;;;5114913;27;20063;-78
2023/07/29 00:52:12;;;;;;;5.68;3.65;;;18.70;99.90;;;;;;5096536;27;20049;-79
2023/07/29 00:54:42;;;;;;;7.75;3.35;;;18.70;99.90;;;;;;5109653;27;20053;-78
2023/07/29 00:57:09;;;;;;;7.65;3.85;;;18.70;99.90;;;;;;5107309;27;20078;-78
2023/07/29 00:59:36;;;;;;;8.57;3.90;;;18.70;99.90;;;;;;5126213;27;20047;-79
2023/07/29 01:02:02;;;;;;;8.73;3.47;;;18.70;99.90;;;;;;5111057;27;20046;-78
2023/07/29 01:04:28;;;;;;;7.32;3.00;;;18.70;99.90;;;;;;5108306;27;20046;-79
2023/07/29 01:07:01;;;;;;;8.43;4.20;;;18.70;99.90;;;;;;5110744;27;20512;-78
2023/07/29 01:09:53;;;;;;;7.07;3.90;;;18.70;99.90;;;;;;5111172;27;20211;-79
2023/07/29 01:12:26;;;;;;;9.57;4.20;;;18.70;99.90;;;;;;5099173;27;20580;-76
2023/07/29 01:15:11;;;;;;;6.82;3.13;;;18.70;99.90;;;;;;5094767;27;20111;-79
2023/07/29 01:17:43;;;;;;;6.53;3.35;;;18.70;99.90;;;;;;5110039;27;20051;-79
2023/07/29 01:20:11;;;;;;;7.38;3.40;;;18.70;99.90;;;;;;5109316;27;20047;-78
2023/07/29 01:22:39;;;;;;;7.38;3.50;;;18.70;99.90;;;;;;5108278;27;20054;-79
2023/07/29 01:25:05;;;;;;;6.20;3.50;;;19.10;99.90;;;;;;5098576;27;20084;-80
2023/07/29 01:27:31;;;;;;;6.25;3.92;;;18.80;99.90;;;;;;5110535;27;20407;-78
2023/07/29 01:29:58;;;;;;;7.70;3.80;;;18.80;99.90;;;;;;5094731;27;20050;-80
2023/07/29 01:32:54;;;;;;;8.05;4.30;;;18.70;99.90;;;;;;5110469;27;20483;-79
2023/07/29 01:35:45;;;;;;;8.35;3.97;;;18.80;99.90;;;;;;5098657;27;20051;-79
2023/07/29 01:38:19;;;;;;;9.50;4.20;;;18.80;99.90;;;;;;5106675;27;20494;-80
2023/07/29 01:40:45;;;;;;;8.90;4.28;;;18.80;99.90;;;;;;5113902;27;20122;-79
2023/07/29 01:43:12;;;;;;;9.60;4.72;;;18.80;99.90;;;;;;5098021;27;20285;-78
2023/07/29 01:45:40;;;;;;;7.57;4.00;;;18.80;99.90;;;;;;5112591;27;20043;-78
2023/07/29 01:48:07;;;;;;;6.10;3.85;;;18.80;99.90;;;;;;5086422;27;20756;-79
2023/07/29 01:50:34;;;;;;;8.70;3.92;;;18.80;99.90;;;;;;5097481;27;20053;-79
2023/07/29 01:53:00;;;;;;;8.90;4.57;;;18.80;99.90;;;;;;5109700;27;20062;-77
2023/07/29 01:55:25;;;;;;;9.63;4.50;;;18.80;99.90;;;;;;5110593;27;20410;-79
2023/07/29 01:57:51;;;;;;;8.75;3.50;;;18.80;99.90;;;;;;5108404;27;20058;-79
2023/07/29 02:00:19;;;;;;;8.90;4.05;;;18.80;99.90;;;;;;5107224;27;20043;-79
2023/07/29 02:02:45;;;;;;;6.05;3.50;;;18.80;99.90;;;;;;5109981;27;20053;-80
2023/07/29 02:05:11;;;;;;;7.07;2.97;;;18.80;99.90;;;;;;5110945;27;20043;-78
2023/07/29 02:07:36;;;;;;;8.00;2.70;;;18.80;99.90;;;;;;5091386;27;20050;-78
2023/07/29 02:10:03;;;;;;;6.40;2.63;;;18.80;99.90;;;;;;5090430;27;20137;-78
2023/07/29 02:12:28;;;;;;;11.10;2.88;;;18.80;99.90;;;;;;5092373;27;20050;-79
2023/07/29 02:14:54;;;;;;;6.32;2.83;;;18.80;99.90;;;;;;5103336;27;20120;-79
2023/07/29 02:17:20;;;;;;;7.32;2.78;;;18.70;99.90;;;;;;5107152;27;20389;-80
2023/07/29 02:19:46;;;;;;;6.30;2.28;;;18.70;99.90;;;;;;5107347;27;20121;-78
2023/07/29 02:22:17;;;;;;;7.82;2.38;;;18.70;99.90;;;;;;5110881;27;20837;-79
2023/07/29 02:24:43;;;;;;;5.90;2.38;;;18.70;99.90;;;;;;5109107;27;20082;-79
2023/07/29 02:27:09;;;;;;;7.65;2.63;;;18.60;99.90;;;;;;5107411;27;20126;-79
2023/07/29 02:29:35;;;;;;;7.60;2.50;;;18.60;99.90;;;;;;5094496;27;20067;-78
2023/07/29 02:32:01;;;;;;;4.85;2.10;;;18.60;99.90;;;;;;5089268;27;20138;-78
2023/07/29 02:34:27;;;;;;;7.80;2.17;;;18.50;99.90;;;;;;5107816;27;20495;-79
2023/07/29 02:36:52;;;;;;;5.03;2.08;;;18.50;99.90;;;;;;5107892;27;20055;-78
2023/07/29 02:39:18;;;;;;;5.32;2.20;;;18.40;99.90;;;;;;5089904;27;20050;-77
2023/07/29 02:41:44;;;;;;;6.75;2.28;;;18.40;99.90;;;;;;5107367;27;20047;-79
2023/07/29 02:44:10;;;;;;;9.93;2.20;;;18.30;99.90;;;;;;5091870;27;20381;-77
2023/07/29 02:46:36;;;;;;;5.53;1.88;;;18.30;99.90;;;;;;5080161;27;20046;-77
2023/07/29 02:49:03;;;;;;;5.25;1.98;;;18.30;99.90;;;;;;5094767;27;20469;-79
2023/07/29 02:51:30;;;;;;;7.45;1.95;;;18.20;99.90;;;;;;5091803;27;20091;-79
2023/07/29 02:53:56;;;;;;;7.15;1.90;;;18.20;99.90;;;;;;5106846;27;20074;-79
2023/07/29 02:56:22;;;;;;;6.10;2.03;;;18.20;99.90;;;;;;5106695;27;20125;-79
2023/07/29 02:58:48;;;;;;;4.93;1.90;;;18.20;99.90;;;;;;5107154;27;20046;-80
2023/07/29 03:01:14;;;;;;;6.43;1.95;;;18.10;99.90;;;;;;5106023;27;20078;-80
2023/07/29 03:03:40;;;;;;;7.22;2.20;;;18.10;99.90;;;;;;5106105;27;20057;-79
2023/07/29 03:06:08;;;;;;;5.13;1.75;;;18.00;99.90;;;;;;5107432;27;20055;-80
2023/07/29 03:08:34;;;;;;;7.00;2.13;;;18.00;99.90;;;;;;5103867;27;20042;-78
2023/07/29 03:11:10;;;;;;;4.55;1.80;;;18.00;99.90;;;;;;5091031;27;20054;-80
2023/07/29 03:13:36;;;;;;;6.28;2.00;;;18.00;99.90;;;;;;5087557;27;20054;-78
2023/07/29 03:16:06;;;;;;;7.75;2.10;;;17.90;99.90;;;;;;5105914;27;20534;-80
2023/07/29 03:18:32;;;;;;;6.72;2.08;;;18.00;99.90;;;;;;5106200;27;20039;-78
2023/07/29 03:20:58;;;;;;;9.05;2.13;;;18.00;99.90;;;;;;5106101;27;20051;-78
2023/07/29 03:23:24;;;;;;;4.63;1.90;;;17.90;99.90;;;;;;5124385;27;20155;-78
2023/07/29 03:25:51;;;;;;;8.02;1.92;;;17.90;99.90;;;;;;5103073;27;20127;-80
2023/07/29 03:28:17;;;;;;;6.40;1.70;;;17.90;99.90;;;;;;5106748;27;20593;-78
2023/07/29 03:30:42;;;;;;;6.68;1.85;;;17.90;99.90;;;;;;5090033;27;20070;-78
2023/07/29 03:33:08;;;;;;;5.28;2.00;;;17.90;99.90;;;;;;5122165;27;20485;-78
2023/07/29 03:35:34;;;;;;;7.03;2.22;;;17.90;99.90;;;;;;5123069;27;20042;-79
2023/07/29 03:38:00;;;;;;;6.93;2.28;;;17.90;99.90;;;;;;5091056;27;20135;-80
2023/07/29 03:40:25;;;;;;;5.45;1.83;;;17.90;99.90;;;;;;5108524;27;20077;-78
2023/07/29 03:42:51;;;;;;;3.38;1.55;;;17.90;99.90;;;;;;5095092;27;20679;-78
2023/07/29 03:45:17;;;;;;;5.10;1.90;;;17.80;99.90;;;;;;5110921;27;20464;-78
2023/07/29 03:47:42;;;;;;;7.60;2.70;;;17.80;99.90;;;;;;5111845;27;20035;-78
2023/07/29 03:50:09;;;;;;;5.43;2.00;;;17.80;99.90;;;;;;5074528;27;20270;-80
2023/07/29 03:52:34;;;;;;;5.93;2.25;;;17.80;99.90;;;;;;5130125;27;20675;-78
2023/07/29 03:55:00;;;;;;;7.50;2.47;;;17.80;99.90;;;;;;5109736;27;20409;-80
2023/07/29 03:57:26;;;;;;;6.38;2.35;;;17.80;99.90;;;;;;5109619;27;20085;-80
2023/07/29 03:59:52;;;;;;;6.15;2.40;;;17.90;99.90;;;;;;5093582;27;20076;-79
2023/07/29 04:02:18;;;;;;;8.18;2.40;;;17.80;99.90;;;;;;5093844;27;20087;-80
2023/07/29 04:04:47;;;;;;;5.28;2.08;;;17.80;99.90;;;;;;5128964;27;20085;-79
2023/07/29 04:07:13;;;;;;;4.82;2.17;;;17.80;99.90;;;;;;5108128;27;20464;-79
2023/07/29 04:09:38;;;;;;;7.05;2.58;;;17.90;99.90;;;;;;5090387;27;20043;-79
2023/07/29 04:12:05;;;;;;;8.05;2.20;;;17.80;99.90;;;;;;5084596;27;20050;-80
2023/07/29 04:14:30;;;;;;;8.65;2.75;;;17.90;99.90;;;;;;5107037;27;20097;-79
2023/07/29 04:16:57;;;;;;;10.07;2.53;;;17.90;99.90;;;;;;5111244;27;20051;-80
2023/07/29 04:19:23;;;;;;;5.25;2.10;;;17.90;99.90;;;;;;5108518;27;20043;-79
2023/07/29 04:21:50;;;;;;;10.57;2.63;;;17.90;99.90;;;;;;5108099;27;20045;-79
2023/07/29 04:24:16;;;;;;;6.82;2.33;;;17.90;99.90;;;;;;5105190;27;20070;-80
2023/07/29 04:26:42;;;;;;;9.10;2.42;;;17.90;99.90;;;;;;5107966;27;20046;-78
2023/07/29 04:29:08;;;;;;;9.55;2.45;;;17.90;99.90;;;;;;5081109;27;20050;-79
2023/07/29 04:31:33;;;;;;;7.53;2.55;;;17.90;99.90;;;;;;5107516;27;20042;-80
2023/07/29 04:33:59;;;;;;;4.97;2.40;;;18.00;99.90;;;;;;5107111;27;20146;-79
2023/07/29 04:36:25;;;;;;;6.90;2.67;;;19.10;99.90;;;;;;5109054;27;20050;-78
2023/07/29 04:38:50;;;;;;;10.57;2.88;;;18.00;99.90;;;;;;5095327;27;20043;-79
2023/07/29 04:41:16;;;;;;;6.22;2.30;;;18.00;99.90;;;;;;5092133;27;20062;-78
2023/07/29 04:43:42;;;;;;;7.07;2.55;;;18.00;99.90;;;;;;5095095;27;20049;-79
2023/07/29 04:46:10;;;;;;;7.13;2.60;;;18.10;99.90;;;;;;5074381;27;20133;-78
2023/07/29 04:48:36;;;;;;;8.60;2.60;;;18.10;99.90;;;;;;5107758;27;20085;-79
2023/07/29 04:51:02;;;;;;;8.70;2.35;;;18.10;99.90;;;;;;5091966;27;20145;-79
2023/07/29 04:53:28;;;;;;;8.65;2.75;;;18.10;99.90;;;;;;5107321;27;20043;-78
2023/07/29 04:55:54;;;;;;;10.98;2.47;;;18.00;99.90;;;;;;5090893;27;20035;-78
2023/07/29 04:58:19;;;;;;;10.57;3.22;;;18.10;99.90;;;;;;5088769;27;20051;-78
2023/07/29 05:00:47;;;;;;;11.35;3.00;;;18.10;99.90;;;;;;5123485;27;20366;-79
2023/07/29 05:03:13;;;;;;;10.60;2.92;;;18.10;99.90;;;;;;5114498;27;20120;-79
2023/07/29 05:05:38;;;;;;;9.48;2.97;;;18.10;99.90;;;;;;5102007;27;20043;-78
2023/07/29 05:08:04;;;;;;;8.80;2.70;;;18.10;99.90;;;;;;5095470;27;20613;-79
2023/07/29 05:10:30;;;;;;;11.82;3.10;;;18.10;99.90;;;;;;5093136;27;20047;-80
2023/07/29 05:12:55;;;;;;;8.25;3.22;;;18.10;99.90;;;;;;5091502;27;20051;-79
2023/07/29 05:15:21;;;;;;;10.55;3.10;;;18.20;99.90;;;;;;5103615;27;20493;-80
2023/07/29 05:17:47;;;;;;;9.55;3.30;;;18.20;99.90;;;;;;5077390;27;20315;-80
2023/07/29 05:20:13;;;;;;;10.63;2.97;;;18.20;99.90;;;;;;5081122;27;20058;-81
2023/07/29 05:22:38;;;;;;;7.97;3.08;;;18.20;99.90;;;;;;5089393;27;22014;-80
2023/07/29 05:25:05;;;;;;;8.00;2.67;;;18.20;99.90;;;;;;5096111;27;20047;-79
2023/07/29 05:27:31;;;;;;;9.30;3.17;;;18.20;99.90;;;;;;5106693;27;20043;-79
2023/07/29 05:29:56;;;;;;;8.48;3.05;;;18.20;99.90;;;;;;5106499;27;20043;-82
2023/07/29 05:32:22;;;;;;;10.77;3.00;;;18.20;99.90;;;;;;5092884;27;20051;-78
2023/07/29 05:34:48;;;;;;;10.48;3.15;;;18.30;99.90;;;;;;5107987;27;20507;-77
2023/07/29 05:37:14;;;;;;;9.38;3.20;;;18.30;99.90;;;;;;5104304;27;20058;-77
2023/07/29 05:39:40;;;;;;;6.40;2.45;;;18.30;99.90;;;;;;5090285;27;20166;-76
2023/07/29 05:42:06;;;;;;;8.93;3.45;;;18.30;99.90;;;;;;5106223;27;20601;-77
2023/07/29 05:44:32;;;;;;;7.90;3.40;;;18.30;99.90;;;;;;5096266;27;20039;-77
2023/07/29 05:46:57;;;;;;;12.82;3.50;;;18.30;99.90;;;;;;5089514;27;21504;-77
2023/07/29 05:49:23;;;;;;;8.93;2.90;;;18.40;99.90;;;;;;5087062;27;20648;-77
2023/07/29 05:51:51;;;;;;;13.20;3.22;;;18.40;99.90;;;;;;5074029;27;20046;-76
2023/07/29 05:54:18;;;;;;;10.57;2.75;;;18.20;99.90;;;;;;5108526;27;20069;-77
2023/07/29 05:56:44;;;;;;;9.88;3.30;;;18.20;99.90;;;;;;5088311;27;20545;-78
2023/07/29 05:59:11;;;;;;;11.00;2.75;;;18.50;99.90;;;;;;5090480;27;20112;-78
2023/07/29 06:01:36;;;;;;;10.65;3.05;;;18.60;99.90;;;;;;5102547;27;20168;-77
2023/07/29 06:04:02;;;;;;;9.57;3.03;;;18.60;99.90;;;;;;5107320;27;20047;-80
2023/07/29 06:06:28;;;;;;;9.75;2.55;;;18.60;99.90;;;;;;5107843;27;20649;-81
2023/07/29 06:08:54;;;;;;;9.68;2.95;;;18.60;99.90;;;;;;5092010;27;20046;-78
2023/07/29 06:11:19;;;;;;;13.43;3.13;;;18.70;99.90;;;;;;5103100;27;20076;-77
2023/07/29 06:13:47;;;;;;;9.65;2.50;;;18.70;99.90;;;;;;5106984;27;20043;-77
2023/07/29 06:16:13;;;;;;;10.07;2.72;;;18.70;99.90;;;;;;5106966;27;20367;-80
2023/07/29 06:18:39;;;;;;;10.13;3.20;;;18.70;99.90;;;;;;5103292;27;20050;-79
2023/07/29 06:21:07;;;;;;;10.95;2.90;;;18.70;99.90;;;;;;5084600;27;20131;-79
2023/07/29 06:23:34;;;;;;;8.50;2.53;;;18.80;99.90;;;;;;5085848;27;20058;-79
2023/07/29 06:26:00;;;;;;;9.65;2.65;;;18.80;99.90;;;;;;5103521;27;20520;-80
2023/07/29 06:28:26;;;;;;;10.35;3.25;;;18.80;99.90;;;;;;5108924;27;20027;-81
2023/07/29 06:30:52;;;;;;;9.20;2.75;;;18.80;99.90;;;;;;5105257;27;20085;-82
2023/07/29 06:33:18;;;;;;;10.30;2.40;;;18.80;99.90;;;;;;5123157;27;20050;-84
2023/07/29 06:35:47;;;;;;;6.55;2.25;;;18.80;99.90;;;;;;5088076;27;20553;-83
2023/07/29 06:38:13;;;;;;;8.82;2.90;;;18.90;99.90;;;;;;5106219;27;20458;-79
2023/07/29 06:40:45;;;;;;;5.95;2.20;;;18.80;99.90;;;;;;5078901;27;20070;-79
2023/07/29 06:43:10;;;;;;;7.97;2.42;;;18.80;99.90;;;;;;5095402;27;20191;-81
2023/07/29 06:45:36;;;;;;;9.25;2.28;;;18.80;99.90;;;;;;5063016;27;20399;-80
2023/07/29 06:48:02;;;;;;;11.85;2.88;;;18.80;99.90;;;;;;5127907;27;20054;-81
2023/07/29 06:50:33;;;;;;;4.97;1.80;;;18.80;99.90;;;;;;5094672;27;20062;-83
2023/07/29 06:52:59;;;;;;;11.98;2.75;;;18.90;99.90;;;;;;5120369;27;20096;-84
2023/07/29 06:55:31;;;;;;;7.63;2.13;;;19.00;99.90;;;;;;5074560;27;20053;-82
2023/07/29 06:57:57;;;;;;;12.77;2.60;;;19.10;99.90;;;;;;5097402;27;20047;-89
2023/07/29 07:00:22;;;;;;;8.40;2.50;;;19.20;99.90;;;;;;5079798;27;20043;-85
2023/07/29 07:02:48;;;;;;;5.93;2.55;;;19.30;99.90;;;;;;5105075;27;20051;-83
2023/07/29 07:05:15;;;;;;;10.25;2.40;;;19.30;99.90;;;;;;5105966;27;20141;-82
2023/07/29 07:07:46;;;;;;;9.50;2.30;;;19.30;99.90;;;;;;5090342;27;20138;-87
2023/07/29 07:10:12;;;;;;;7.32;2.10;;;19.30;99.90;;;;;;5096671;27;20043;-83
2023/07/29 07:12:37;;;;;;;4.00;2.03;;;19.40;99.90;;;;;;5079202;27;20080;-84
2023/07/29 07:15:03;;;;;;;5.68;2.10;;;19.40;99.90;;;;;;5125887;27;20042;-84
2023/07/29 07:17:29;;;;;;;6.78;2.03;;;19.40;99.90;;;;;;5103301;27;20164;-83
2023/07/29 07:19:55;;;;;;;7.15;1.77;;;19.50;99.90;;;;;;5087242;27;20580;-84
2023/07/29 07:22:21;;;;;;;6.65;2.10;;;19.50;99.90;;;;;;5124671;27;20494;-85
2023/07/29 07:24:48;;;;;;;4.47;2.10;;;19.50;99.90;;;;;;5109390;27;20039;-78
2023/07/29 07:27:13;;;;;;;5.97;2.30;;;19.50;99.90;;;;;;5101582;27;20158;-81
2023/07/29 07:29:39;;;;;;;7.75;2.03;;;19.50;99.90;;;;;;5089536;27;20047;-81
2023/07/29 07:32:05;;;;;;;6.15;1.83;;;19.60;99.90;;;;;;5112929;27;20042;-81
2023/07/29 07:34:33;;;;;;;5.63;1.80;;;19.70;99.90;;;;;;5094793;27;20106;-80
2023/07/29 07:36:58;;;;;;;6.10;2.20;;;19.70;99.90;;;;;;5107572;27;20063;-81
2023/07/29 07:39:24;;;;;;;8.07;2.10;;;19.70;99.90;;;;;;5108236;27;20106;-82
2023/07/29 07:41:50;;;;;;;6.72;2.30;;;19.80;99.90;;;;;;5086525;27;20057;-81
2023/07/29 07:44:17;;;;;;;10.10;2.17;;;19.90;99.50;;;;;;5105585;27;20815;-82
2023/07/29 07:46:44;;;;;;;6.15;2.20;;;20.00;99.20;;;;;;5087875;27;20092;-81
2023/07/29 07:49:10;;;;;;;4.60;1.60;;;20.00;98.90;;;;;;5078582;27;20035;-81
2023/07/29 07:51:36;;;;;;;6.38;2.03;;;20.10;98.90;;;;;;5091460;27;20086;-81
2023/07/29 07:54:02;;;;;;;7.50;1.90;;;20.10;98.70;;;;;;5090647;27;20042;-81
2023/07/29 07:56:27;;;;;;;8.00;2.15;;;20.20;98.50;;;;;;5103349;27;20095;-82
2023/07/29 07:58:53;;;;;;;8.10;2.25;;;20.20;98.40;;;;;;5106652;27;20141;-81
2023/07/29 08:01:19;;;;;;;4.00;1.70;;;20.20;98.30;;;;;;5104862;27;20035;-79
2023/07/29 08:03:45;;;;;;;4.28;1.85;;;20.60;98.10;;;;;;5104521;27;20065;-79
2023/07/29 08:06:12;;;;;;;7.20;2.40;;;20.40;97.70;;;;;;5122341;27;20782;-81
2023/07/29 08:08:38;;;;;;;5.43;1.90;;;20.70;96.80;;;;;;5071612;27;20069;-79
2023/07/29 08:11:03;;;;;;;6.30;1.75;;;20.90;95.90;;;;;;5106076;27;20758;-80
2023/07/29 08:13:29;;;;;;;7.22;2.10;;;21.00;95.40;;;;;;5070468;27;20043;-81
2023/07/29 08:15:55;;;;;;;5.75;1.85;;;21.20;95.10;;;;;;5101045;27;20051;-84
2023/07/29 08:18:23;;;;;;;5.88;1.90;;;21.40;94.70;;;;;;5102672;27;20049;-78
2023/07/29 08:20:59;;;;;;;5.90;1.88;;;21.60;94.10;;;;;;5121327;27;20039;-78
2023/07/29 08:23:46;;;;;;;6.68;1.98;;;21.60;93.50;;;;;;5127528;27;20079;-78
2023/07/29 08:26:13;;;;;;;5.20;1.85;;;21.40;93.10;;;;;;5090081;27;20521;-78
2023/07/29 08:28:40;;;;;;;5.50;2.00;;;21.20;93.20;;;;;;5112144;27;20477;-77
2023/07/29 08:31:06;;;;;;;7.50;2.15;;;21.10;93.40;;;;;;5103823;27;20104;-77
2023/07/29 08:33:33;;;;;;;7.53;1.55;;;21.00;93.80;;;;;;5104489;27;20047;-77
2023/07/29 08:36:05;;;;;;;7.30;1.75;;;21.00;94.00;;;;;;5080296;27;20103;-79
2023/07/29 08:38:31;;;;;;;5.43;1.80;;;20.90;94.00;;;;;;5106987;27;20043;-79
2023/07/29 08:40:56;;;;;;;5.88;2.00;;;19.00;93.50;;;;;;5106754;27;20054;-79
2023/07/29 08:43:32;;;;;;;5.75;2.20;;;20.80;93.90;;;;;;5125688;27;20039;-79
2023/07/29 08:45:59;;;;;;;3.70;1.60;;;20.90;93.80;;;;;;5114513;27;20051;-79
2023/07/29 08:48:46;;;;;;;6.28;2.00;;;22.20;94.20;;;;;;5108881;27;20443;-77
2023/07/29 08:51:14;;;;;;;4.85;1.80;;;20.90;93.70;;;;;;5126226;27;20056;-78
2023/07/29 08:53:50;;;;;;;7.75;2.00;;;20.80;93.60;;;;;;5126737;27;20054;-78
2023/07/29 08:56:30;;;;;;;8.43;2.35;;;20.80;93.70;;;;;;5091807;27;20080;-80
2023/07/29 08:58:56;;;;;;;4.30;1.67;;;20.80;94.00;;;;;;5106144;27;20131;-80
2023/07/29 09:01:22;;;;;;;5.60;1.80;;;20.80;94.10;;;;;;5108193;27;20038;-80
2023/07/29 09:03:47;;;;;;;4.07;1.67;;;20.80;94.10;;;;;;5079821;27;20046;-80
2023/07/29 09:06:15;;;;;;;5.13;1.85;;;20.90;94.20;;;;;;5094360;27;21359;-76
2023/07/29 09:08:41;;;;;;;9.13;2.63;;;21.00;94.30;;;;;;5097887;27;20047;-79
2023/07/29 09:11:07;;;;;;;6.28;1.98;;;21.20;94.30;;;;;;5108510;27;20050;-78
2023/07/29 09:13:33;;;;;;;5.22;1.88;;;21.30;94.10;;;;;;5108880;27;20054;-76
2023/07/29 09:15:59;;;;;;;4.40;1.90;;;21.30;93.80;;;;;;5108650;27;20050;-77
2023/07/29 09:18:27;;;;;;;3.80;2.00;;;21.40;93.70;;;;;;5090934;27;20049;-77
2023/07/29 09:20:53;;;;;;;5.63;2.20;;;21.50;93.40;;;;;;5112552;27;20034;-76
2023/07/29 09:23:19;;;;;;;4.72;1.70;;;21.50;92.40;;;;;;5108184;27;20095;-78
2023/07/29 09:25:47;;;;;;;4.57;1.70;;;21.50;92.20;;;;;;5087531;27;20352;-77
2023/07/29 09:28:15;;;;;;;7.25;1.80;;;21.60;92.30;;;;;;5106425;27;20079;-77
2023/07/29 09:30:46;;;;;;;5.07;1.67;;;21.70;91.50;;;;;;5110246;27;20043;-80
2023/07/29 09:33:12;;;;;;;3.75;1.40;;;21.80;91.30;;;;;;5107191;27;20155;-78
2023/07/29 09:35:38;;;;;;;3.35;1.50;;;22.00;91.20;;;;;;5108903;27;20055;-79
2023/07/29 09:38:05;;;;;;;4.80;1.70;;;22.10;91.10;;;;;;5096337;27;20541;-78
2023/07/29 09:40:36;;;;;;;4.47;1.60;;;22.30;90.40;;;;;;5109174;27;20568;-79
2023/07/29 09:43:02;;;;;;;4.55;2.22;;;22.40;90.20;;;;;;5108971;27;20095;-80
2023/07/29 09:45:27;;;;;;;4.07;1.30;;;22.40;90.00;;;;;;5110045;27;20047;-78
2023/07/29 09:47:54;;;;;;;7.15;1.75;;;22.30;89.80;;;;;;5098982;27;20078;-78
2023/07/29 09:50:24;;;;;;;4.50;1.73;;;22.30;90.20;;;;;;5095978;27;20602;-75
2023/07/29 09:52:51;;;;;;;5.88;1.70;;;22.20;90.20;;;;;;5112513;27;20047;-78
2023/07/29 09:55:19;;;;;;;7.03;2.20;;;22.10;90.30;;;;;;5109670;27;20042;-78
2023/07/29 09:57:45;;;;;;;5.07;1.95;;;22.00;90.20;;;;;;5106574;27;20042;-76
2023/07/29 10:00:12;;;;;;;3.88;1.60;;;21.90;90.30;;;;;;5109405;27;20054;-77
2023/07/29 10:02:41;;;;;;;3.53;1.30;;;21.80;90.10;;;;;;5091430;27;20066;-77
2023/07/29 10:05:08;;;;;;;4.75;1.50;;;21.90;89.40;;;;;;5106064;27;20424;-76
2023/07/29 10:07:38;;;;;;;5.82;1.67;;;21.90;89.90;;;;;;5112986;27;20529;-79
2023/07/29 10:10:06;;;;;;;6.75;1.90;;;21.90;89.60;;;;;;5107777;27;20047;-78
2023/07/29 10:12:33;;;;;;;5.30;1.70;;;21.90;89.70;;;;;;5126492;27;20707;-76
2023/07/29 10:15:08;;;;;;;5.93;1.77;;;21.90;90.20;;;;;;5107391;27;20061;-78
2023/07/29 10:17:36;;;;;;;7.30;2.15;;;21.70;90.40;;;;;;5100277;27;20046;-78
2023/07/29 10:20:07;;;;;;;5.13;1.75;;;21.50;91.00;;;;;;5103759;27;20103;-79
2023/07/29 10:22:39;;;;;;;4.60;2.15;;;21.40;91.60;;;;;;5108060;27;20039;-77
2023/07/29 10:25:13;;;;;;;6.20;1.80;;;21.20;91.90;;;;;;5108637;27;20050;-78
2023/07/29 10:27:47;;;;;;;4.75;1.60;;;20.90;91.70;;;;;;5090076;27;20051;-75
2023/07/29 10:30:13;;;;;;;3.65;1.17;;;20.70;93.00;;;;;;5123983;27;20928;-76
2023/07/29 10:32:46;;;;;;;3.33;1.30;;;20.50;93.90;;;;;;5091713;27;20493;-78
2023/07/29 10:35:16;;;;;;;2.55;1.35;;;20.30;94.30;;;;;;5108128;27;20035;-79
2023/07/29 10:37:42;;;;;;;3.05;1.55;;;20.20;93.80;;;;;;5103070;27;20973;-79
2023/07/29 10:40:09;;;;;;;5.72;1.40;;;20.50;93.50;;;;;;5110461;27;20525;-80
2023/07/29 10:42:36;;;;;;;6.00;1.55;;;20.10;93.50;;;;;;5097127;27;20080;-80
2023/07/29 10:45:22;;;;;;;4.03;1.38;;;20.00;93.00;;;;;;5095676;27;20573;-80
2023/07/29 10:47:48;;;;;;;7.18;2.15;;;20.00;92.10;;;;;;5106698;27;20490;-77
2023/07/29 10:50:19;;;;;;;3.65;1.77;;;20.00;92.30;;;;;;5098987;27;20135;-81
2023/07/29 10:52:52;;;;;;;3.13;1.52;;;20.00;91.50;;;;;;5112496;27;20046;-80
2023/07/29 10:55:33;;;;;;;5.35;1.77;;;20.10;89.90;;;;;;5094196;27;20065;-81
2023/07/29 10:58:18;;;;;;;5.47;1.65;;;20.10;89.20;;;;;;5129436;27;21653;-81
2023/07/29 11:00:45;;;;;;;4.40;1.70;;;20.20;88.50;;;;;;5109623;27;20049;-81
2023/07/29 11:03:16;;;;;;;6.05;1.85;;;20.40;87.80;;;;;;5110714;27;20239;-81
2023/07/29 11:05:51;;;;;;;6.82;2.15;;;20.50;88.20;;;;;;5111129;27;20046;-79
2023/07/29 11:08:19;;;;;;;6.45;2.20;;;21.00;86.70;;;;;;5113300;27;20118;-80
2023/07/29 11:11:07;;;;;;;4.97;1.70;;;21.50;83.10;;;;;;5111435;27;20407;-80
2023/07/29 11:13:38;;;;;;;3.13;1.40;;;21.90;76.20;;;;;;5110512;27;20067;-82
2023/07/29 11:16:05;;;;;;;5.70;2.17;;;22.30;72.40;;;;;;5094089;27;20035;-77
2023/07/29 11:18:35;;;;;;;5.13;1.58;;;22.60;68.00;;;;;;5111159;27;20031;-82
2023/07/29 11:21:03;;;;;;;4.90;1.65;;;23.00;64.00;;;;;;5085219;27;20045;-79
2023/07/29 11:23:33;;;;;;;5.15;1.77;;;23.20;61.20;;;;;;5102691;27;20071;-79
2023/07/29 11:26:01;;;;;;;7.60;1.70;;;23.10;58.40;;;;;;5102500;27;20050;-79
2023/07/29 11:28:29;;;;;;;3.75;1.50;;;23.00;60.70;;;;;;5105050;27;20046;-78
2023/07/29 11:30:56;;;;;;;5.97;1.92;;;22.90;61.20;;;;;;5120431;27;20054;-79
2023/07/29 11:33:28;;;;;;;4.03;1.40;;;23.10;61.20;;;;;;5097978;27;20130;-80
2023/07/29 11:35:54;;;;;;;4.32;1.30;;;23.20;58.00;;;;;;5116328;27;20127;-79
2023/07/29 11:38:21;;;;;;;5.30;1.52;;;23.10;59.10;;;;;;5074156;27;20047;-78
2023/07/29 11:40:59;;;;;;;4.60;1.40;;;23.00;60.40;;;;;;5114401;27;20047;-79
2023/07/29 11:43:26;;;;;;;6.00;1.60;;;22.80;60.20;;;;;;5118146;27;20051;-79
2023/07/29 11:45:53;;;;;;;3.95;1.85;;;22.80;60.80;;;;;;5105099;27;20043;-78
2023/07/29 11:48:26;;;;;;;6.45;1.85;;;23.00;60.80;;;;;;5097280;27;20039;-80
2023/07/29 11:50:53;;;;;;;7.40;2.20;;;22.70;60.50;;;;;;5083246;27;20061;-80
2023/07/29 11:53:19;;;;;;;4.20;1.60;;;23.00;57.80;;;;;;5115962;27;20424;-79
2023/07/29 11:55:44;;;;;;;5.30;1.77;;;22.70;56.20;;;;;;5084951;27;20043;-80
2023/07/29 11:58:16;;;;;;;4.28;1.50;;;22.50;55.80;;;;;;5114816;27;20433;-79
2023/07/29 12:00:42;;;;;;;5.45;1.95;;;22.40;54.90;;;;;;5116935;27;20047;-78
2023/07/29 12:03:09;;;;;;;3.45;1.75;;;22.10;52.00;;;;;;5102996;27;21044;-78
2023/07/29 12:05:35;;;;;;;6.97;1.80;;;21.70;52.50;;;;;;5101934;27;20046;-79
2023/07/29 12:08:01;;;;;;;6.32;1.92;;;21.60;56.00;;;;;;5119913;27;20482;-79
2023/07/29 12:10:27;;;;;;;4.00;2.10;;;21.60;58.50;;;;;;5110302;27;20042;-78
2023/07/29 12:12:53;;;;;;;7.07;1.90;;;21.70;60.30;;;;;;5103762;27;20043;-82
2023/07/29 12:15:29;;;;;;;4.97;2.15;;;21.70;60.20;;;;;;5122463;27;20103;-79
2023/07/29 12:17:56;;;;;;;4.55;2.20;;;21.60;60.30;;;;;;5119956;27;20047;-78
2023/07/29 12:20:22;;;;;;;4.70;1.80;;;21.60;61.40;;;;;;5118385;27;20039;-79
2023/07/29 12:22:58;;;;;;;7.28;2.00;;;21.60;62.50;;;;;;5103143;27;20074;-81
2023/07/29 12:25:26;;;;;;;6.65;2.40;;;21.60;63.20;;;;;;5125914;27;20042;-82
2023/07/29 12:27:51;;;;;;;5.03;1.95;;;21.50;63.70;;;;;;5119394;27;20058;-79
2023/07/29 12:30:21;;;;;;;5.20;2.00;;;21.50;65.10;;;;;;5103826;27;20054;-79
2023/07/29 12:32:48;;;;;;;4.88;2.17;;;21.50;66.30;;;;;;5137836;27;20039;-79
2023/07/29 12:35:14;;;;;;;7.70;2.30;;;21.60;65.60;;;;;;5106876;27;20314;-81
2023/07/29 12:37:43;;;;;;;7.65;2.45;;;21.70;64.20;;;;;;5108425;27;20042;-80
2023/07/29 12:40:29;;;;;;;4.85;2.03;;;21.80;59.70;;;;;;5104247;27;20211;-80
2023/07/29 12:42:56;;;;;;;;;;;21.90;59.00;;;;;;5121643;27;20710;-79
2023/07/29 12:45:26;;;;;;;4.78;1.80;;;22.00;55.40;;;;;;5108130;27;19930;-82
2023/07/29 12:47:51;;;;;;;6.63;1.98;;;22.30;52.40;;;;;;5087287;27;20074;-79